createdAt,value
2022-07-26T00:00:36.863Z,0.92
2022-07-26T00:05:58.596Z,1.02
2022-07-26T00:11:23.644Z,0.99
2022-07-26T00:16:50.031Z,1.14
2022-07-26T00:22:18.275Z,1.13
2022-07-26T00:27:45.924Z,0.93
2022-07-26T00:33:13.164Z,1.12
2022-07-26T00:38:35.086Z,0.99
2022-07-26T00:44:02.749Z,1.25
2022-07-26T00:49:30.069Z,1.20
2022-07-26T00:54:55.530Z,1.07
2022-07-26T01:00:19.191Z,1.15
2022-07-26T01:05:46.493Z,1.17
2022-07-26T01:11:14.203Z,1.23
2022-07-26T01:16:42.019Z,1.11
2022-07-26T01:22:12.532Z,1.18
2022-07-26T01:27:33.815Z,0.98
2022-07-26T01:32:56.633Z,1.30
2022-07-26T01:38:23.667Z,1.09
2022-07-26T01:43:45.756Z,1.13
2022-07-26T01:49:08.146Z,1.07
2022-07-26T01:54:35.083Z,1.37
2022-07-26T02:00:03.196Z,1.08
2022-07-26T02:05:31.831Z,1.23
2022-07-26T02:10:57.529Z,1.08
2022-07-26T02:16:25.548Z,1.28
2022-07-26T02:21:52.967Z,1.11
2022-07-26T02:27:20.253Z,1.17
2022-07-26T02:32:41.866Z,1.34
2022-07-26T02:38:08.039Z,1.41
2022-07-26T02:43:35.230Z,1.14
2022-07-26T02:49:01.854Z,1.01
2022-07-26T02:54:29.003Z,1.21
2022-07-26T02:59:57.462Z,2.04
2022-07-26T03:05:22.750Z,1.43
2022-07-26T03:10:50.250Z,1.52
2022-07-26T03:16:21.931Z,1.32
2022-07-26T03:21:39.710Z,1.42
2022-07-26T03:27:07.321Z,1.35
2022-07-26T03:32:35.704Z,1.66
2022-07-26T03:38:02.120Z,1.73
2022-07-26T03:43:24.100Z,1.68
2022-07-26T03:48:48.667Z,1.48
2022-07-26T03:54:15.611Z,1.58
2022-07-26T03:59:41.368Z,1.71
2022-07-26T04:05:09.007Z,1.79
2022-07-26T04:10:33.996Z,1.42
2022-07-26T04:16:02.469Z,1.89
2022-07-26T04:21:30.825Z,1.44
2022-07-26T04:26:56.979Z,1.37
2022-07-26T04:32:23.666Z,1.52
2022-07-26T04:37:50.706Z,1.36
2022-07-26T04:43:15.692Z,1.40
2022-07-26T04:48:34.612Z,1.50
2022-07-26T04:54:00.552Z,1.90
2022-07-26T04:59:22.766Z,1.43
2022-07-26T05:04:50.060Z,1.36
2022-07-26T05:10:16.675Z,1.01
2022-07-26T05:15:38.429Z,1.14
2022-07-26T05:21:06.235Z,0.77
2022-07-26T05:26:31.848Z,1.12
2022-07-26T05:31:56.695Z,0.74
2022-07-26T05:37:23.706Z,0.77
2022-07-26T05:42:50.637Z,0.89
2022-07-26T05:48:12.532Z,0.81
2022-07-26T05:53:39.623Z,0.70
2022-07-26T05:59:07.218Z,0.52
2022-07-26T06:04:34.519Z,0.80
2022-07-26T06:10:02.106Z,0.89
2022-07-26T06:15:28.863Z,0.69
2022-07-26T06:20:56.300Z,0.84
2022-07-26T06:26:24.006Z,0.81
2022-07-26T06:31:52.295Z,0.54
2022-07-26T06:37:19.002Z,0.62
2022-07-26T06:42:40.974Z,0.80
2022-07-26T06:48:09.536Z,0.37
2022-07-26T06:53:37.806Z,0.67
2022-07-26T06:59:09.500Z,0.66
2022-07-26T07:04:37.861Z,0.62
2022-07-26T07:10:08.225Z,0.63
2022-07-26T07:16:01.808Z,0.63
2022-07-26T07:21:29.686Z,0.55
2022-07-26T07:26:56.725Z,0.71
2022-07-26T07:32:24.730Z,0.81
2022-07-26T07:37:53.684Z,0.93
2022-07-26T07:43:17.533Z,0.67
2022-07-26T07:48:47.406Z,0.78
2022-07-26T07:54:09.610Z,0.76
2022-07-26T07:59:39.030Z,0.64
2022-07-26T08:05:11.360Z,0.52
2022-07-26T08:10:23.397Z,0.58
2022-07-26T08:15:51.612Z,0.63
2022-07-26T08:21:18.240Z,0.78
2022-07-26T08:26:46.192Z,0.50
2022-07-26T08:32:13.537Z,0.55
2022-07-26T08:37:40.506Z,0.43
2022-07-26T08:43:09.692Z,0.65
2022-07-26T08:48:38.757Z,0.48
2022-07-26T08:54:10.661Z,0.68
2022-07-26T08:59:37.074Z,0.60
2022-07-26T09:05:04.976Z,0.61
2022-07-26T09:10:38.588Z,0.37
2022-07-26T09:16:00.328Z,0.55
2022-07-26T09:21:37.326Z,0.79
2022-07-26T09:27:03.129Z,0.68
2022-07-26T09:32:30.727Z,0.55
2022-07-26T09:37:59.390Z,0.63
2022-07-26T09:43:31.694Z,0.74
2022-07-26T09:49:10.918Z,0.53
2022-07-26T09:54:39.620Z,0.54
2022-07-26T10:00:07.943Z,0.56
2022-07-26T10:05:32.689Z,0.41
2022-07-26T10:10:55.367Z,0.44
2022-07-26T10:16:24.935Z,0.56
2022-07-26T10:21:56.750Z,0.68
2022-07-26T10:27:44.992Z,0.54
2022-07-26T10:33:07.228Z,0.50
2022-07-26T10:38:32.304Z,0.40
2022-07-26T10:43:58.563Z,0.58
2022-07-26T10:49:43.531Z,0.57
2022-07-26T10:55:19.503Z,0.49
2022-07-26T11:00:45.952Z,0.49
2022-07-26T11:06:15.846Z,0.50
2022-07-26T11:11:46.786Z,0.61
2022-07-26T11:17:10.036Z,0.76
2022-07-26T11:22:46.539Z,0.52
2022-07-26T11:28:10.189Z,0.65
2022-07-26T11:33:40.477Z,0.48
2022-07-26T11:39:08.981Z,0.52
2022-07-26T11:44:36.723Z,0.64
2022-07-26T11:50:21.517Z,0.48
2022-07-26T11:55:33.398Z,0.34
2022-07-26T12:01:00.538Z,0.43
2022-07-26T12:06:23.247Z,0.62
2022-07-26T12:11:50.377Z,0.80
2022-07-26T12:17:12.097Z,0.65
2022-07-26T12:22:38.553Z,0.48
2022-07-26T12:28:09.285Z,0.60
2022-07-26T12:33:31.739Z,0.50
2022-07-26T12:39:04.950Z,0.57
2022-07-26T12:44:30.786Z,0.40
2022-07-26T12:49:58.118Z,0.48
2022-07-26T12:55:29.256Z,0.57
2022-07-26T13:00:52.236Z,0.47
2022-07-26T13:06:30.007Z,0.57
2022-07-26T13:11:51.048Z,0.48
2022-07-26T13:17:17.662Z,0.57
2022-07-26T13:37:08.231Z,0.54
2022-07-26T13:42:28.846Z,0.50
2022-07-26T13:47:52.948Z,0.59
2022-07-26T13:53:24.777Z,0.59
2022-07-26T13:58:55.338Z,0.69
2022-07-26T14:04:44.618Z,0.45
2022-07-26T14:10:16.979Z,0.77
2022-07-26T14:16:24.162Z,0.40
2022-07-26T14:22:52.633Z,0.61
2022-07-26T14:28:19.215Z,0.57
2022-07-26T14:40:00.884Z,0.36
2022-07-26T14:45:27.314Z,0.40
2022-07-26T14:57:09.388Z,0.40
2022-07-26T15:02:31.201Z,0.58
2022-07-26T15:08:11.972Z,0.50
2022-07-26T15:13:49.542Z,0.63
2022-07-26T15:19:25.166Z,0.78
2022-07-26T15:24:48.317Z,0.84
2022-07-26T15:30:15.201Z,0.76
2022-07-26T15:35:54.632Z,0.60
2022-07-26T15:41:16.898Z,0.74
2022-07-26T15:46:45.092Z,0.71
2022-07-26T15:52:13.505Z,0.87
2022-07-26T15:57:38.703Z,0.56
2022-07-26T16:03:06.155Z,0.88
2022-07-26T16:08:32.369Z,0.80
2022-07-26T16:14:14.069Z,0.72
2022-07-26T16:19:39.977Z,0.76
2022-07-26T16:25:07.246Z,0.63
2022-07-26T16:30:30.906Z,0.68
2022-07-26T16:35:54.524Z,0.56
2022-07-26T16:41:28.831Z,0.73
2022-07-26T16:46:55.098Z,0.75
2022-07-26T16:52:18.557Z,0.33
2022-07-26T16:57:45.133Z,0.72
2022-07-26T17:03:10.765Z,0.78
2022-07-26T17:08:36.257Z,0.70
2022-07-26T17:14:03.114Z,0.62
2022-07-26T17:19:27.961Z,0.54
2022-07-26T17:24:52.800Z,0.72
2022-07-26T17:30:19.168Z,1.00
2022-07-26T17:35:44.264Z,0.64
2022-07-26T17:41:17.394Z,0.64
2022-07-26T17:46:39.269Z,0.80
2022-07-26T17:52:05.744Z,0.72
2022-07-26T17:57:31.372Z,0.77
2022-07-26T18:02:59.356Z,0.74
2022-07-26T18:08:26.294Z,0.72
2022-07-26T18:13:55.512Z,0.94
2022-07-26T18:19:18.150Z,0.73
2022-07-26T18:24:45.211Z,0.73
2022-07-26T18:30:14.228Z,0.78
2022-07-26T18:35:41.838Z,0.98
2022-07-26T18:41:10.923Z,1.12
2022-07-26T18:46:39.157Z,1.47
2022-07-26T18:52:08.843Z,1.57
2022-07-26T18:57:38.184Z,1.57
2022-07-26T19:03:02.659Z,1.31
2022-07-26T19:08:29.804Z,1.38
2022-07-26T19:13:57.358Z,1.44
2022-07-26T19:19:19.203Z,1.47
2022-07-26T19:24:46.975Z,1.37
2022-07-26T19:30:13.990Z,1.31
2022-07-26T19:35:39.574Z,1.40
2022-07-26T19:41:07.034Z,1.42
2022-07-26T19:46:35.154Z,1.42
2022-07-26T19:52:02.090Z,1.11
2022-07-26T19:57:30.195Z,1.19
2022-07-26T20:02:52.388Z,1.27
2022-07-26T20:08:20.300Z,1.07
2022-07-26T20:14:10.811Z,1.22
2022-07-26T20:19:45.583Z,1.12
2022-07-26T20:25:12.009Z,1.32
2022-07-26T20:30:37.218Z,1.28
2022-07-26T20:36:02.339Z,1.17
2022-07-26T20:41:33.691Z,1.28
2022-07-26T20:46:55.891Z,1.28
2022-07-26T20:52:24.226Z,1.23
2022-07-26T20:57:53.053Z,1.20
2022-07-26T21:03:21.002Z,1.33
2022-07-26T21:08:48.255Z,1.33
2022-07-26T21:14:10.140Z,0.96
2022-07-26T21:19:37.388Z,1.32
2022-07-26T21:25:05.106Z,1.26
2022-07-26T21:30:32.160Z,1.30
2022-07-26T21:36:00.033Z,1.22
2022-07-26T21:41:27.442Z,1.17
2022-07-26T21:46:53.308Z,1.26
2022-07-26T21:52:21.052Z,1.16
2022-07-26T21:57:47.101Z,1.11
2022-07-26T22:03:09.351Z,1.10
2022-07-26T22:08:37.248Z,1.17
2022-07-26T22:14:03.574Z,1.19
2022-07-26T22:19:28.226Z,1.70
2022-07-26T22:24:55.749Z,1.30
2022-07-26T22:30:22.151Z,1.08
2022-07-26T22:35:45.678Z,1.45
2022-07-26T22:41:11.309Z,1.46
2022-07-26T22:46:34.380Z,1.15
2022-07-26T22:51:56.310Z,1.13
2022-07-26T22:57:24.118Z,1.22
2022-07-26T23:02:49.834Z,1.36
2022-07-26T23:08:47.104Z,1.44
2022-07-26T23:13:46.358Z,1.62
2022-07-26T23:19:08.621Z,1.34
2022-07-26T23:24:34.703Z,1.74
2022-07-26T23:29:59.292Z,1.39
2022-07-26T23:35:24.594Z,1.41
2022-07-26T23:40:52.801Z,1.70
2022-07-26T23:46:19.415Z,1.59
2022-07-26T23:51:41.122Z,1.43
2022-07-26T23:57:06.285Z,1.60
